createdAt,value
2019-04-10T00:01:22.115Z,54.57
2019-04-10T00:03:55.156Z,55.23
2019-04-10T00:06:27.958Z,56.20
2019-04-10T00:09:00.942Z,63.53
2019-04-10T00:11:34.617Z,52.43
2019-04-10T00:14:08.251Z,61.90
2019-04-10T00:16:42.286Z,53.73
2019-04-10T00:19:15.401Z,55.90
2019-04-10T00:21:49.354Z,54.03
2019-04-10T00:24:22.552Z,56.63
2019-04-10T00:26:56.340Z,53.87
2019-04-10T00:29:29.974Z,55.13
2019-04-10T00:32:03.753Z,51.53
2019-04-10T00:34:37.729Z,59.57
2019-04-10T00:37:22.607Z,55.87
2019-04-10T00:39:45.388Z,53.07
2019-04-10T00:42:18.983Z,56.10
2019-04-10T00:44:52.187Z,53.53
2019-04-10T00:47:25.111Z,57.70
2019-04-10T00:49:57.942Z,53.23
2019-04-10T00:52:30.941Z,53.87
2019-04-10T00:55:04.431Z,55.13
2019-04-10T00:57:37.285Z,51.77
2019-04-10T01:00:10.296Z,58.10
2019-04-10T01:02:43.272Z,55.13
2019-04-10T01:05:17.287Z,52.13
2019-04-10T01:07:50.302Z,52.13
2019-04-10T01:10:23.135Z,53.60
2019-04-10T01:12:56.585Z,54.67
2019-04-10T01:15:30.796Z,51.33
2019-04-10T01:18:04.617Z,51.53
2019-04-10T01:20:37.733Z,48.80
2019-04-10T01:23:11.728Z,54.20
2019-04-10T01:25:44.861Z,51.10
2019-04-10T01:28:17.800Z,52.70
2019-04-10T01:30:50.758Z,53.20
2019-04-10T01:33:23.657Z,54.27
2019-04-10T01:35:56.394Z,52.50
2019-04-10T01:38:29.330Z,58.00
2019-04-10T01:41:02.240Z,56.73
2019-04-10T01:43:35.187Z,56.60
2019-04-10T01:46:08.363Z,51.73
2019-04-10T01:48:41.930Z,57.03
2019-04-10T01:51:15.197Z,54.53
2019-04-10T01:53:48.282Z,58.07
2019-04-10T01:56:27.624Z,56.23
2019-04-10T01:58:55.802Z,61.53
2019-04-10T02:01:32.740Z,51.57
2019-04-10T02:04:05.739Z,54.80
2019-04-10T02:06:39.625Z,55.77
2019-04-10T02:09:12.895Z,54.93
2019-04-10T02:11:46.079Z,52.70
2019-04-10T02:14:18.977Z,60.30
2019-04-10T02:16:51.867Z,57.90
2019-04-10T02:19:26.126Z,56.03
2019-04-10T02:22:00.205Z,53.87
2019-04-10T02:24:33.436Z,54.57
2019-04-10T02:27:06.445Z,55.03
2019-04-10T02:29:39.872Z,53.30
2019-04-10T02:32:14.437Z,56.77
2019-04-10T02:34:48.934Z,54.23
2019-04-10T02:37:22.916Z,55.63
2019-04-10T02:40:00.225Z,53.67
2019-04-10T02:42:32.242Z,51.97
2019-04-10T02:45:05.983Z,51.73
2019-04-10T02:47:39.151Z,52.83
2019-04-10T02:50:14.037Z,55.20
2019-04-10T02:52:48.830Z,52.57
2019-04-10T02:55:22.996Z,55.10
2019-04-10T02:57:56.423Z,60.23
2019-04-10T03:00:30.331Z,59.17
2019-04-10T03:03:03.660Z,57.77
2019-04-10T03:05:38.276Z,59.83
2019-04-10T03:08:13.011Z,55.43
2019-04-10T03:10:51.754Z,55.87
2019-04-10T03:13:21.865Z,53.63
2019-04-10T03:15:55.876Z,55.03
2019-04-10T03:18:29.059Z,51.67
2019-04-10T03:21:02.746Z,54.17
2019-04-10T03:23:35.720Z,57.73
2019-04-10T03:26:09.652Z,57.33
2019-04-10T03:28:43.057Z,57.13
2019-04-10T03:31:16.204Z,55.13
2019-04-10T03:34:14.265Z,53.13
2019-04-10T03:36:47.645Z,55.33
2019-04-10T03:39:21.525Z,51.40
2019-04-10T03:41:54.790Z,48.07
2019-04-10T03:44:28.000Z,47.63
2019-04-10T03:47:01.014Z,51.40
2019-04-10T03:49:33.986Z,50.27
2019-04-10T03:52:07.237Z,49.37
2019-04-10T03:54:40.533Z,47.13
2019-04-10T03:57:14.266Z,48.10
2019-04-10T03:59:47.615Z,45.10
2019-04-10T04:02:20.584Z,44.90
2019-04-10T04:04:53.793Z,46.77
2019-04-10T04:07:27.269Z,50.73
2019-04-10T04:10:00.388Z,53.13
2019-04-10T04:12:33.257Z,50.87
2019-04-10T04:15:06.337Z,49.90
2019-04-10T04:17:40.063Z,45.90
2019-04-10T04:20:13.293Z,43.10
2019-04-10T04:22:46.207Z,43.00
2019-04-10T04:25:20.449Z,46.37
2019-04-10T04:27:54.507Z,44.10
2019-04-10T04:30:27.797Z,43.83
2019-04-10T04:33:00.804Z,46.30
2019-04-10T04:35:34.621Z,40.10
2019-04-10T04:38:07.713Z,43.63
2019-04-10T04:40:40.773Z,41.77
2019-04-10T04:43:14.549Z,44.30
2019-04-10T04:45:48.384Z,39.30
2019-04-10T04:48:21.925Z,39.87
2019-04-10T04:50:55.060Z,46.07
2019-04-10T04:53:28.163Z,39.63
2019-04-10T04:56:13.675Z,40.37
2019-04-10T04:58:49.680Z,46.60
2019-04-10T05:01:23.076Z,41.90
2019-04-10T05:03:55.993Z,44.10
2019-04-10T05:06:28.873Z,41.97
2019-04-10T05:09:02.814Z,50.20
2019-04-10T05:11:37.155Z,41.77
2019-04-10T05:14:11.028Z,42.20
2019-04-10T05:16:44.070Z,43.63
2019-04-10T05:19:17.398Z,34.53
2019-04-10T05:21:51.814Z,43.87
2019-04-10T05:24:24.718Z,39.80
2019-04-10T05:26:57.601Z,35.40
2019-04-10T05:29:31.284Z,39.60
2019-04-10T05:32:05.120Z,39.33
2019-04-10T05:34:38.401Z,35.63
2019-04-10T05:37:11.514Z,37.30
2019-04-10T05:39:49.912Z,40.77
2019-04-10T05:42:19.171Z,34.80
2019-04-10T05:44:52.326Z,39.90
2019-04-10T05:47:26.219Z,34.20
2019-04-10T05:49:59.812Z,33.17
2019-04-10T05:52:33.193Z,35.67
2019-04-10T05:55:06.590Z,38.17
2019-04-10T05:57:40.655Z,40.67
2019-04-10T06:00:16.691Z,44.13
2019-04-10T06:02:50.289Z,33.77
2019-04-10T06:05:23.147Z,28.50
2019-04-10T06:07:57.260Z,34.10
2019-04-10T06:10:30.221Z,30.07
2019-04-10T06:13:03.182Z,33.00
2019-04-10T06:15:37.146Z,33.00
2019-04-10T06:18:11.083Z,32.00
2019-04-10T06:20:45.255Z,32.27
2019-04-10T06:23:19.146Z,29.20
2019-04-10T06:25:52.211Z,29.37
2019-04-10T06:28:26.203Z,34.87
2019-04-10T06:31:00.665Z,32.93
2019-04-10T06:33:34.053Z,34.43
2019-04-10T06:36:07.055Z,32.53
2019-04-10T06:38:41.003Z,32.83
2019-04-10T06:41:16.200Z,32.43
2019-04-10T06:43:49.634Z,34.13
2019-04-10T06:46:22.702Z,27.93
2019-04-10T06:48:56.330Z,30.57
2019-04-10T06:51:29.340Z,32.00
2019-04-10T06:54:06.770Z,31.40
2019-04-10T06:56:38.470Z,34.67
2019-04-10T06:59:12.160Z,28.93
2019-04-10T07:01:51.336Z,28.63
2019-04-10T07:04:24.026Z,29.23
2019-04-10T07:07:01.758Z,33.07
2019-04-10T07:09:29.932Z,29.53
2019-04-10T07:12:04.996Z,32.33
2019-04-10T07:14:38.741Z,25.30
2019-04-10T07:17:14.362Z,29.40
2019-04-10T07:19:49.345Z,31.40
2019-04-10T07:22:22.922Z,31.07
2019-04-10T07:24:56.467Z,32.70
2019-04-10T07:27:33.605Z,31.83
2019-04-10T07:30:05.644Z,28.47
2019-04-10T07:32:42.144Z,31.80
2019-04-10T07:35:16.641Z,28.70
2019-04-10T07:37:52.694Z,28.00
2019-04-10T07:40:24.950Z,32.77
2019-04-10T07:42:58.742Z,32.57
2019-04-10T07:45:31.888Z,31.70
2019-04-10T07:48:04.925Z,31.03
2019-04-10T07:50:37.763Z,29.23
2019-04-10T07:53:10.786Z,32.30
2019-04-10T07:55:57.495Z,30.02
2019-04-10T07:58:19.488Z,28.20
2019-04-10T08:00:53.304Z,28.40
2019-04-10T08:03:26.333Z,28.40
2019-04-10T08:06:00.367Z,32.80
2019-04-10T08:08:34.019Z,32.58
2019-04-10T08:11:07.215Z,28.07
2019-04-10T08:13:40.721Z,26.23
2019-04-10T08:16:14.782Z,30.48
2019-04-10T08:18:47.843Z,31.23
2019-04-10T08:21:21.836Z,29.05
2019-04-10T08:23:54.966Z,35.60
2019-04-10T08:26:28.167Z,31.17
2019-04-10T08:29:01.651Z,32.95
2019-04-10T08:31:34.791Z,30.80
2019-04-10T08:34:08.814Z,27.75
2019-04-10T08:36:41.818Z,32.10
2019-04-10T08:39:28.240Z,30.85
2019-04-10T08:41:50.099Z,31.35
2019-04-10T08:44:24.219Z,29.60
2019-04-10T08:46:58.153Z,30.20
2019-04-10T08:49:31.348Z,29.20
2019-04-10T08:52:04.193Z,29.63
2019-04-10T08:54:38.366Z,30.32
2019-04-10T08:57:12.221Z,28.87
2019-04-10T08:59:46.651Z,27.10
2019-04-10T09:02:20.147Z,26.57
2019-04-10T09:04:53.214Z,29.57
2019-04-10T09:07:26.380Z,30.27
2019-04-10T09:09:59.317Z,31.30
2019-04-10T09:12:32.384Z,27.37
2019-04-10T09:15:05.982Z,31.82
2019-04-10T09:17:39.669Z,29.02
2019-04-10T09:20:12.849Z,26.80
2019-04-10T09:23:10.719Z,27.20
2019-04-10T09:25:20.623Z,27.62
2019-04-10T09:27:53.982Z,36.60
2019-04-10T09:30:27.380Z,28.77
2019-04-10T09:33:01.693Z,27.87
2019-04-10T09:35:34.943Z,27.27
2019-04-10T09:38:07.731Z,27.82
2019-04-10T09:40:40.798Z,25.72
2019-04-10T09:43:14.339Z,26.12
2019-04-10T09:45:48.080Z,27.22
2019-04-10T09:48:22.143Z,25.80
2019-04-10T09:50:56.108Z,27.35
2019-04-10T09:53:29.168Z,27.85
2019-04-10T09:56:03.131Z,34.40
2019-04-10T09:58:36.373Z,26.85
2019-04-10T10:01:14.707Z,26.95
2019-04-10T10:03:48.710Z,25.23
2019-04-10T10:06:27.372Z,25.82
2019-04-10T10:08:56.486Z,24.32
2019-04-10T10:11:30.616Z,26.30
2019-04-10T10:14:04.087Z,25.65
2019-04-10T10:16:37.547Z,25.10
2019-04-10T10:19:30.140Z,22.35
2019-04-10T10:22:04.677Z,25.80
2019-04-10T10:24:38.514Z,25.45
2019-04-10T10:27:11.506Z,22.87
2019-04-10T10:29:44.383Z,26.97
2019-04-10T10:32:17.196Z,21.77
2019-04-10T10:34:50.444Z,25.12
2019-04-10T10:37:24.169Z,23.30
2019-04-10T10:39:57.317Z,25.45
2019-04-10T10:42:30.294Z,28.75
2019-04-10T10:45:04.797Z,28.62
2019-04-10T10:47:38.717Z,23.75
2019-04-10T10:50:11.575Z,24.25
2019-04-10T10:52:44.345Z,21.65
2019-04-10T10:55:17.853Z,19.17
2019-04-10T10:57:51.263Z,23.00
2019-04-10T11:00:25.271Z,21.80
2019-04-10T11:03:00.200Z,21.75
2019-04-10T11:05:33.393Z,25.25
2019-04-10T11:08:06.893Z,20.82
2019-04-10T11:10:41.074Z,26.97
2019-04-10T11:13:15.002Z,26.80
2019-04-10T11:15:48.550Z,19.70
2019-04-10T11:18:22.225Z,19.57
2019-04-10T11:21:00.705Z,20.82
2019-04-10T11:23:30.567Z,22.17
2019-04-10T11:26:05.165Z,19.92
2019-04-10T11:28:39.166Z,22.00
2019-04-10T11:31:13.533Z,19.57
2019-04-10T11:33:50.275Z,24.30
2019-04-10T11:36:21.705Z,20.72
2019-04-10T11:38:56.003Z,21.42
2019-04-10T11:41:31.171Z,18.50
2019-04-10T11:44:04.699Z,19.27
2019-04-10T11:46:38.689Z,21.40
2019-04-10T11:49:14.344Z,21.60
2019-04-10T11:51:49.931Z,18.50
2019-04-10T11:54:26.454Z,22.40
2019-04-10T11:56:58.728Z,19.73
2019-04-10T11:59:32.945Z,20.60
2019-04-10T12:02:08.160Z,18.27
2019-04-10T12:04:50.680Z,17.70
2019-04-10T12:07:48.060Z,24.05
2019-04-10T12:12:25.821Z,18.55
2019-04-10T12:14:59.753Z,21.10
2019-04-10T12:17:33.822Z,21.25
2019-04-10T12:20:07.445Z,18.90
2019-04-10T12:22:40.725Z,18.12
2019-04-10T12:25:14.884Z,21.25
2019-04-10T12:27:49.372Z,20.43
2019-04-10T12:30:23.473Z,20.37
2019-04-10T12:32:56.844Z,18.82
2019-04-10T12:35:29.896Z,19.77
2019-04-10T12:38:07.257Z,18.48
2019-04-10T12:40:39.325Z,19.73
2019-04-10T12:43:12.714Z,26.45
2019-04-10T12:45:46.461Z,18.30
2019-04-10T12:48:19.516Z,18.00
2019-04-10T12:50:53.058Z,16.45
2019-04-10T12:53:26.244Z,14.85
2019-04-10T12:55:59.792Z,17.95
2019-04-10T12:58:33.001Z,15.53
2019-04-10T13:01:06.779Z,23.07
2019-04-10T13:03:39.690Z,17.30
2019-04-10T13:06:13.637Z,16.95
2019-04-10T13:08:57.769Z,18.40
2019-04-10T13:11:22.563Z,18.65
2019-04-10T13:13:55.497Z,18.15
2019-04-10T13:16:28.345Z,19.20
2019-04-10T13:19:01.292Z,18.57
2019-04-10T13:21:34.654Z,19.10
2019-04-10T13:24:09.029Z,18.82
2019-04-10T13:26:42.049Z,22.22
2019-04-10T13:29:16.143Z,23.87
2019-04-10T13:31:49.157Z,24.32
2019-04-10T13:34:22.027Z,21.93
2019-04-10T13:36:56.119Z,17.95
2019-04-10T13:39:29.050Z,21.85
2019-04-10T13:42:03.072Z,20.12
2019-04-10T13:44:36.022Z,18.48
2019-04-10T13:47:10.216Z,17.57
2019-04-10T13:49:44.184Z,20.00
2019-04-10T13:52:18.283Z,21.12
2019-04-10T13:54:52.460Z,21.95
2019-04-10T13:57:26.457Z,19.90
2019-04-10T13:59:59.718Z,17.27
2019-04-10T14:02:35.507Z,23.07
2019-04-10T14:05:11.634Z,18.02
2019-04-10T14:07:44.665Z,21.60
2019-04-10T14:10:18.776Z,19.70
2019-04-10T14:12:51.807Z,20.15
2019-04-10T14:15:25.876Z,16.90
2019-04-10T14:17:59.718Z,17.35
2019-04-10T14:20:32.856Z,23.65
2019-04-10T14:23:22.593Z,22.73
2019-04-10T14:26:18.662Z,26.37
2019-04-10T14:28:52.024Z,17.70
2019-04-10T14:31:28.763Z,18.45
2019-04-10T14:34:02.773Z,18.95
2019-04-10T14:36:36.522Z,18.35
2019-04-10T14:39:18.301Z,18.92
2019-04-10T14:41:49.867Z,23.07
2019-04-10T14:44:23.339Z,19.32
2019-04-10T14:46:56.426Z,24.30
2019-04-10T14:49:29.361Z,17.52
2019-04-10T14:52:03.164Z,20.72
2019-04-10T14:54:36.312Z,24.75
2019-04-10T14:57:09.258Z,22.42
2019-04-10T14:59:42.253Z,20.50
2019-04-10T15:02:15.344Z,19.85
2019-04-10T15:04:49.403Z,18.05
2019-04-10T15:07:22.566Z,20.15
2019-04-10T15:09:55.518Z,25.80
2019-04-10T15:12:28.584Z,16.95
2019-04-10T15:15:01.878Z,19.75
2019-04-10T15:17:36.083Z,20.70
2019-04-10T15:20:09.179Z,18.42
2019-04-10T15:22:42.263Z,15.98
2019-04-10T15:25:15.767Z,20.15
2019-04-10T15:27:49.645Z,16.17
2019-04-10T15:30:22.693Z,18.00
2019-04-10T15:32:56.087Z,21.20
2019-04-10T15:35:29.273Z,21.65
2019-04-10T15:38:02.457Z,17.87
2019-04-10T15:40:36.442Z,18.37
2019-04-10T15:43:10.649Z,16.52
2019-04-10T15:45:44.126Z,21.02
2019-04-10T15:48:17.137Z,21.90
2019-04-10T15:50:51.700Z,19.85
2019-04-10T15:53:24.768Z,24.87
2019-04-10T15:55:57.876Z,23.10
2019-04-10T15:58:31.147Z,22.05
2019-04-10T16:01:06.045Z,19.48
2019-04-10T16:03:39.001Z,19.57
2019-04-10T16:06:11.957Z,19.40
2019-04-10T16:08:44.980Z,24.07
2019-04-10T16:11:38.203Z,19.30
2019-04-10T16:14:20.740Z,19.98
2019-04-10T16:17:22.272Z,17.52
2019-04-10T16:20:13.978Z,20.20
2019-04-10T16:22:53.791Z,23.55
2019-04-10T16:25:28.218Z,22.85
2019-04-10T16:28:02.610Z,25.35
2019-04-10T16:30:35.538Z,19.40
2019-04-10T16:33:09.131Z,19.82
2019-04-10T16:35:46.219Z,25.40
2019-04-10T16:38:20.479Z,21.35
2019-04-10T16:40:56.352Z,20.62
2019-04-10T16:43:30.615Z,23.18
2019-04-10T16:46:04.819Z,19.85
2019-04-10T16:48:38.016Z,22.05
2019-04-10T16:51:10.799Z,22.58
2019-04-10T16:53:44.145Z,23.32
2019-04-10T16:56:17.817Z,26.42
2019-04-10T16:58:52.079Z,22.85
2019-04-10T17:01:25.128Z,22.62
2019-04-10T17:03:58.611Z,23.02
2019-04-10T17:06:32.497Z,21.73
2019-04-10T17:09:06.289Z,21.37
2019-04-10T17:11:40.988Z,24.00
2019-04-10T17:14:15.106Z,20.88
2019-04-10T17:16:48.248Z,20.55
2019-04-10T17:19:21.619Z,19.27
2019-04-10T17:21:54.916Z,21.00
2019-04-10T17:24:27.877Z,20.00
2019-04-10T17:27:01.519Z,19.98
2019-04-10T17:29:34.738Z,19.70
2019-04-10T17:32:07.745Z,22.17
2019-04-10T17:34:41.067Z,18.57
2019-04-10T17:37:14.241Z,23.65
2019-04-10T17:39:47.370Z,17.85
2019-04-10T17:42:20.392Z,20.40
2019-04-10T17:44:54.692Z,22.10
2019-04-10T17:47:27.750Z,23.50
2019-04-10T17:50:00.723Z,24.70
2019-04-10T17:52:35.882Z,20.30
2019-04-10T17:55:09.407Z,21.40
2019-04-10T17:57:44.624Z,20.70
2019-04-10T18:00:33.460Z,18.82
2019-04-10T18:03:07.596Z,22.17
2019-04-10T18:05:40.818Z,21.67
2019-04-10T18:08:13.872Z,22.43
2019-04-10T18:10:50.820Z,20.43
2019-04-10T18:13:22.441Z,20.47
2019-04-10T18:15:56.674Z,18.33
2019-04-10T18:18:30.052Z,19.40
2019-04-10T18:21:04.462Z,23.80
2019-04-10T18:23:37.890Z,23.73
2019-04-10T18:26:11.136Z,20.43
2019-04-10T18:28:44.219Z,18.30
2019-04-10T18:31:17.234Z,21.13
2019-04-10T18:33:51.013Z,19.47
2019-04-10T18:36:24.462Z,18.80
2019-04-10T18:38:57.757Z,19.87
2019-04-10T18:41:31.857Z,23.43
2019-04-10T18:44:05.104Z,24.77
2019-04-10T18:46:38.072Z,28.30
2019-04-10T18:49:11.466Z,22.60
2019-04-10T18:51:45.794Z,19.47
2019-04-10T18:54:18.968Z,23.10
2019-04-10T18:56:51.936Z,18.77
2019-04-10T18:59:34.442Z,21.67
2019-04-10T19:02:30.421Z,18.87
2019-04-10T19:05:23.519Z,19.50
2019-04-10T19:07:56.791Z,18.83
2019-04-10T19:10:30.644Z,19.33
2019-04-10T19:13:03.934Z,21.10
2019-04-10T19:15:37.188Z,20.33
2019-04-10T19:18:11.323Z,20.00
2019-04-10T19:20:44.199Z,19.20
2019-04-10T19:23:17.401Z,26.73
2019-04-10T19:25:51.219Z,18.83
2019-04-10T19:28:30.266Z,28.27
2019-04-10T19:31:12.871Z,19.43
2019-04-10T19:33:39.425Z,18.33
2019-04-10T19:36:12.726Z,17.30
2019-04-10T19:38:45.826Z,18.83
2019-04-10T19:41:25.064Z,22.30
2019-04-10T19:43:54.864Z,19.00
2019-04-10T19:46:28.958Z,21.80
2019-04-10T19:49:02.496Z,20.10
2019-04-10T19:51:36.408Z,17.60
2019-04-10T19:54:10.870Z,16.97
2019-04-10T19:56:44.584Z,16.97
2019-04-10T19:59:18.696Z,21.10
2019-04-10T20:01:52.769Z,18.63
2019-04-10T20:04:26.946Z,20.17
2019-04-10T20:07:00.584Z,20.13
2019-04-10T20:09:34.606Z,20.77
2019-04-10T20:12:08.488Z,18.70
2019-04-10T20:14:41.677Z,18.73
2019-04-10T20:17:15.420Z,21.07
2019-04-10T20:19:48.937Z,18.17
2019-04-10T20:22:22.955Z,18.43
2019-04-10T20:24:56.867Z,18.90
2019-04-10T20:27:29.908Z,17.50
2019-04-10T20:30:03.725Z,23.83
2019-04-10T20:32:38.475Z,17.60
2019-04-10T20:35:11.972Z,17.20
2019-04-10T20:37:45.023Z,17.17
2019-04-10T20:40:19.559Z,22.83
2019-04-10T20:42:54.161Z,19.03
2019-04-10T20:45:27.408Z,20.07
2019-04-10T20:48:00.373Z,17.43
2019-04-10T20:50:34.216Z,18.13
2019-04-10T20:53:07.487Z,19.80
2019-04-10T20:55:59.937Z,17.87
2019-04-10T20:58:33.844Z,17.87
2019-04-10T21:01:08.243Z,21.47
2019-04-10T21:03:41.221Z,17.43
2019-04-10T21:06:15.507Z,18.03
2019-04-10T21:08:48.560Z,21.13
2019-04-10T21:11:22.528Z,23.27
2019-04-10T21:13:56.598Z,22.17
2019-04-10T21:16:29.811Z,17.80
2019-04-10T21:19:03.002Z,17.50
2019-04-10T21:21:36.930Z,19.57
2019-04-10T21:24:09.942Z,20.63
2019-04-10T21:26:42.974Z,17.23
2019-04-10T21:29:36.346Z,20.13
2019-04-10T21:32:28.263Z,19.67
2019-04-10T21:35:02.079Z,19.13
2019-04-10T21:37:35.209Z,25.33
2019-04-10T21:40:08.363Z,20.47
2019-04-10T21:42:41.376Z,21.00
2019-04-10T21:45:14.257Z,17.93
2019-04-10T21:47:48.064Z,21.73
2019-04-10T21:50:21.596Z,18.93
2019-04-10T21:52:55.408Z,17.77
2019-04-10T21:55:29.043Z,18.83
2019-04-10T21:58:02.117Z,18.80
2019-04-10T22:00:53.414Z,18.07
2019-04-10T22:03:27.667Z,18.37
2019-04-10T22:06:30.199Z,18.87
2019-04-10T22:09:34.913Z,16.77
2019-04-10T22:12:23.910Z,18.67
2019-04-10T22:14:50.295Z,16.73
2019-04-10T22:17:23.364Z,22.57
2019-04-10T22:19:56.239Z,18.23
2019-04-10T22:22:29.012Z,16.33
2019-04-10T22:25:01.956Z,16.70
2019-04-10T22:27:35.929Z,16.70
2019-04-10T22:30:10.370Z,17.57
2019-04-10T22:32:43.419Z,24.27
2019-04-10T22:35:17.214Z,15.27
2019-04-10T22:37:50.391Z,17.87
2019-04-10T22:40:23.606Z,19.70
2019-04-10T22:42:57.495Z,17.47
2019-04-10T22:45:31.278Z,24.23
2019-04-10T22:48:06.164Z,19.13
2019-04-10T22:50:40.038Z,19.43
2019-04-10T22:53:13.038Z,22.23
2019-04-10T22:55:46.527Z,19.43
2019-04-10T22:58:19.536Z,21.93
2019-04-10T23:00:52.445Z,20.80
2019-04-10T23:03:25.215Z,21.73
2019-04-10T23:05:58.620Z,19.13
2019-04-10T23:08:31.695Z,22.27
2019-04-10T23:11:05.714Z,27.43
2019-04-10T23:13:39.053Z,23.37
2019-04-10T23:16:15.306Z,24.30
2019-04-10T23:18:47.698Z,25.27
2019-04-10T23:21:20.776Z,24.73
2019-04-10T23:23:54.927Z,26.43
2019-04-10T23:26:29.029Z,27.60
2019-04-10T23:29:02.166Z,24.60
2019-04-10T23:31:35.050Z,24.07
2019-04-10T23:34:08.401Z,25.33
2019-04-10T23:36:42.333Z,25.43
2019-04-10T23:39:16.330Z,30.30
2019-04-10T23:41:50.985Z,25.30
2019-04-10T23:44:24.857Z,21.00
2019-04-10T23:46:57.894Z,22.60
2019-04-10T23:49:30.786Z,24.57
2019-04-10T23:52:03.659Z,23.50
2019-04-10T23:54:37.435Z,20.03
2019-04-10T23:57:11.468Z,22.57
2019-04-10T23:59:44.666Z,19.80
